Time;durP1;ratioP1;P1;durP2;ratioP2;P2;SDS_P1;SDS_P2;PMS_P1;PMS_P2;Temp;Humidity;BMP_temperature;BMP_pressure;BME280_temperature;BME280_humidity;BME280_pressure;Samples;Min_cycle;Max_cycle;Signal;HPM_P1;HPM_P2
2022/12/22 03:26:50;;;;;;;4.50;1.73;;;11.10;69.50;;;;;;5043901;28;20434;-71
2022/12/22 03:29:16;;;;;;;3.63;1.90;;;11.10;69.20;;;;;;5044519;28;20455;-71
2022/12/22 03:31:41;;;;;;;1.67;1.50;;;11.10;67.80;;;;;;5049155;28;20173;-71
2022/12/22 03:34:07;;;;;;;4.90;2.00;;;11.10;67.80;;;;;;5043867;28;20462;-70
2022/12/22 03:36:32;;;;;;;2.10;1.70;;;11.10;69.00;;;;;;5051147;28;20184;-71
2022/12/22 03:38:58;;;;;;;3.10;1.73;;;11.20;60.70;;;;;;5040781;28;20181;-71
2022/12/22 03:46:52;;;;;;;7.97;1.83;;;11.20;59.30;;;;;;5051352;28;20493;-71
2022/12/22 03:49:18;;;;;;;3.07;1.80;;;11.30;59.00;;;;;;5048699;28;20535;-71
2022/12/22 03:51:49;;;;;;;4.20;1.50;;;11.30;56.80;;;;;;5050141;28;20174;-71
2022/12/22 03:54:17;;;;;;;4.27;1.60;;;11.30;59.50;;;;;;5042632;28;20443;-71
2022/12/22 03:56:42;;;;;;;2.77;1.77;;;11.40;55.20;;;;;;5048330;28;20408;-72
2022/12/22 03:59:09;;;;;;;2.10;1.70;;;11.40;51.90;;;;;;5045659;28;20436;-72
2022/12/22 04:01:44;;;;;;;2.30;1.83;;;11.30;54.10;;;;;;5047690;28;20258;-71
2022/12/22 04:04:11;;;;;;;2.13;1.43;;;11.30;54.00;;;;;;5041833;28;20849;-71
2022/12/22 04:06:37;;;;;;;5.83;2.03;;;11.30;49.20;;;;;;5050398;28;20494;-71
2022/12/22 04:09:03;;;;;;;3.17;2.07;;;11.30;49.30;;;;;;5043008;28;20439;-71
2022/12/22 04:14:13;;;;;;;2.90;1.60;;;11.30;52.30;;;;;;5042393;28;20450;-71
2022/12/22 04:16:38;;;;;;;1.90;1.60;;;11.20;50.00;;;;;;5042233;28;20451;-71
2022/12/22 04:19:05;;;;;;;2.73;1.80;;;11.30;43.10;;;;;;5034460;28;20226;-71
2022/12/22 04:21:31;;;;;;;3.17;1.47;;;11.30;45.90;;;;;;5039438;28;20186;-71
2022/12/22 04:23:56;;;;;;;2.80;1.67;;;11.30;46.30;;;;;;5032467;28;20446;-71
2022/12/22 04:26:24;;;;;;;2.90;1.90;;;11.30;46.60;;;;;;5045349;28;20173;-70
2022/12/22 04:28:51;;;;;;;4.27;1.90;;;11.30;49.20;;;;;;5048189;28;20266;-71
2022/12/22 04:31:16;;;;;;;4.30;1.90;;;11.30;51.90;;;;;;5047511;28;20527;-71
2022/12/22 04:33:42;;;;;;;7.53;1.70;;;11.20;53.10;;;;;;5039996;28;20471;-72
2022/12/22 04:36:08;;;;;;;4.73;1.90;;;11.20;56.50;;;;;;5049721;28;20647;-72
2022/12/22 04:38:34;;;;;;;3.47;1.73;;;11.20;57.40;;;;;;5041518;28;20180;-71
2022/12/22 04:41:00;;;;;;;4.13;1.67;;;11.20;59.50;;;;;;5040912;28;20451;-72
2022/12/22 04:43:25;;;;;;;3.90;1.90;;;12.30;65.00;;;;;;5042841;28;20456;-71
2022/12/22 04:45:52;;;;;;;3.50;1.60;;;11.00;79.10;;;;;;5043989;28;20588;-72
2022/12/22 04:48:18;;;;;;;3.40;1.80;;;11.00;81.60;;;;;;5045212;28;20593;-71
2022/12/22 04:50:43;;;;;;;3.03;1.53;;;11.00;88.40;;;;;;5047484;28;20439;-71
2022/12/22 04:53:09;;;;;;;6.40;2.07;;;11.00;90.90;;;;;;5044253;28;20212;-72
2022/12/22 04:55:34;;;;;;;2.70;1.77;;;11.00;93.00;;;;;;5043555;28;20182;-73
2022/12/22 04:58:00;;;;;;;2.70;1.60;;;11.00;94.30;;;;;;5037564;28;20177;-71
2022/12/22 05:00:25;;;;;;;2.23;1.30;;;11.00;95.60;;;;;;5037890;28;20262;-72
2022/12/22 05:02:51;;;;;;;6.73;1.60;;;10.90;97.10;;;;;;5034728;28;20205;-71
2022/12/22 05:05:17;;;;;;;3.63;1.50;;;10.90;98.80;;;;;;5038053;28;20200;-72
2022/12/22 05:07:42;;;;;;;3.00;1.90;;;11.00;99.40;;;;;;5037515;28;20601;-72
2022/12/22 05:10:09;;;;;;;8.03;1.50;;;11.00;99.40;;;;;;5040305;28;20249;-72
2022/12/22 05:15:20;;;;;;;4.27;1.77;;;10.90;99.40;;;;;;5040535;28;20457;-72
2022/12/22 05:17:45;;;;;;;3.73;1.57;;;11.00;99.90;;;;;;5048225;28;20407;-72
2022/12/22 05:20:11;;;;;;;4.67;2.10;;;11.00;99.90;;;;;;5040684;28;20454;-72
2022/12/22 05:22:36;;;;;;;6.80;1.57;;;11.00;99.90;;;;;;5048611;28;20651;-71
2022/12/22 05:25:02;;;;;;;2.80;1.90;;;11.00;99.90;;;;;;5042889;28;20563;-72
2022/12/22 05:27:27;;;;;;;3.40;1.60;;;11.00;99.70;;;;;;5045405;28;20243;-71
2022/12/22 05:29:53;;;;;;;3.93;1.60;;;11.00;99.50;;;;;;5041407;28;20664;-70
2022/12/22 05:32:19;;;;;;;2.90;1.60;;;11.00;99.40;;;;;;5046615;28;20208;-72
2022/12/22 05:34:44;;;;;;;3.90;1.77;;;11.00;99.40;;;;;;5037519;28;20178;-72
2022/12/22 05:37:10;;;;;;;4.30;1.60;;;11.00;99.40;;;;;;5044605;28;20506;-71
2022/12/22 05:39:35;;;;;;;4.87;1.80;;;11.00;98.30;;;;;;5044781;28;20205;-69
2022/12/22 05:42:01;;;;;;;3.10;1.70;;;11.00;99.40;;;;;;5048200;28;20582;-72
2022/12/22 05:44:26;;;;;;;5.03;1.43;;;11.00;98.30;;;;;;5043251;28;20181;-71
2022/12/22 05:46:52;;;;;;;2.63;1.97;;;11.00;97.40;;;;;;5051456;28;20173;-70
2022/12/22 05:49:18;;;;;;;2.23;1.50;;;11.10;94.60;;;;;;5046221;28;20315;-72
2022/12/22 05:51:45;;;;;;;6.87;1.63;;;11.10;95.30;;;;;;5041311;28;20173;-72
2022/12/22 05:54:10;;;;;;;5.13;1.60;;;11.10;92.70;;;;;;5033041;28;20438;-71
2022/12/22 05:56:36;;;;;;;5.20;1.90;;;11.10;92.30;;;;;;5048380;28;20407;-72
2022/12/22 05:59:01;;;;;;;3.30;1.57;;;11.10;91.90;;;;;;5041962;28;20269;-71
2022/12/22 06:01:27;;;;;;;4.90;1.80;;;11.10;93.10;;;;;;5044053;28;20252;-72
2022/12/22 06:03:52;;;;;;;2.80;1.43;;;11.20;90.90;;;;;;5040098;28;20210;-71
2022/12/22 06:06:18;;;;;;;3.20;1.47;;;11.20;90.00;;;;;;5036363;28;20180;-71
2022/12/22 06:08:44;;;;;;;5.57;1.50;;;11.20;87.70;;;;;;5037756;28;20179;-70
2022/12/22 06:11:09;;;;;;;2.43;1.50;;;11.20;82.80;;;;;;5036629;28;20272;-71
2022/12/22 06:13:35;;;;;;;3.33;1.40;;;11.20;84.10;;;;;;5039311;28;20604;-69
2022/12/22 06:16:00;;;;;;;4.23;1.67;;;11.20;81.30;;;;;;5047908;28;20234;-71
2022/12/22 06:18:27;;;;;;;7.47;1.70;;;11.30;80.90;;;;;;5042432;28;20182;-71
2022/12/22 06:20:53;;;;;;;7.43;2.20;;;11.20;79.10;;;;;;5046038;28;20303;-69
2022/12/22 06:23:20;;;;;;;5.40;1.80;;;11.30;79.70;;;;;;5043978;28;20471;-72
2022/12/22 06:26:01;;;;;;;8.17;2.17;;;11.30;77.30;;;;;;5046469;28;20419;-69
2022/12/22 06:28:28;;;;;;;3.77;1.43;;;11.30;78.00;;;;;;5040988;28;20574;-71
2022/12/22 06:30:54;;;;;;;6.57;1.70;;;11.30;74.70;;;;;;5047921;28;20459;-70
2022/12/22 06:33:20;;;;;;;2.80;1.60;;;11.30;77.80;;;;;;5036433;28;20443;-73
2022/12/22 06:35:46;;;;;;;4.27;1.80;;;11.30;75.80;;;;;;5046222;28;20446;-72
2022/12/22 06:38:12;;;;;;;5.23;1.77;;;11.30;71.70;;;;;;5044251;28;20527;-72
2022/12/22 06:40:37;;;;;;;6.03;1.73;;;11.40;64.30;;;;;;5048358;28;20535;-71
2022/12/22 06:43:09;;;;;;;5.53;1.40;;;11.40;65.30;;;;;;5043549;28;20204;-72
2022/12/22 06:45:42;;;;;;;4.20;1.83;;;11.40;58.90;;;;;;5048827;28;20165;-72
2022/12/22 06:48:09;;;;;;;3.10;1.60;;;11.50;57.90;;;;;;5038106;28;20478;-71
2022/12/22 06:50:35;;;;;;;3.90;1.70;;;11.50;55.80;;;;;;5042813;28;20467;-72
2022/12/22 06:53:00;;;;;;;2.97;1.40;;;11.60;54.40;;;;;;5036869;28;20454;-71
2022/12/22 06:55:26;;;;;;;2.80;1.60;;;11.50;53.20;;;;;;5037345;28;20181;-72
2022/12/22 06:57:52;;;;;;;6.87;2.20;;;11.40;63.20;;;;;;5044842;28;20704;-71
2022/12/22 07:00:17;;;;;;;4.80;2.10;;;11.30;66.80;;;;;;5045739;28;20197;-72
2022/12/22 07:02:43;;;;;;;7.60;2.40;;;11.20;68.40;;;;;;5043618;28;20719;-71
2022/12/22 07:05:09;;;;;;;6.60;1.90;;;11.20;68.00;;;;;;5049948;28;20165;-71
2022/12/22 07:07:34;;;;;;;4.40;1.77;;;11.30;69.70;;;;;;5045504;28;20180;-72
2022/12/22 07:10:00;;;;;;;6.20;1.50;;;11.30;63.10;;;;;;5041127;28;20197;-72
2022/12/22 07:12:25;;;;;;;8.40;2.00;;;11.30;64.70;;;;;;5036709;28;20259;-70
2022/12/22 07:14:51;;;;;;;7.50;2.10;;;11.40;63.70;;;;;;5052021;28;20188;-72
2022/12/22 07:17:16;;;;;;;5.00;1.60;;;11.40;61.10;;;;;;5050995;28;20184;-72
2022/12/22 07:19:42;;;;;;;2.33;1.50;;;11.40;60.40;;;;;;5050267;28;20246;-72
2022/12/22 07:22:07;;;;;;;8.33;2.30;;;11.40;57.90;;;;;;5045878;28;20201;-71
2022/12/22 07:24:33;;;;;;;5.27;2.00;;;11.40;58.80;;;;;;5040715;28;20266;-72
2022/12/22 07:26:59;;;;;;;5.63;2.37;;;11.50;56.40;;;;;;5045997;28;20174;-72
2022/12/22 07:29:24;;;;;;;7.30;2.10;;;11.50;50.80;;;;;;5039292;28;20347;-72
2022/12/22 07:31:50;;;;;;;6.03;1.70;;;11.50;43.50;;;;;;5046655;28;20732;-71
2022/12/22 07:34:16;;;;;;;10.63;1.97;;;11.60;39.50;;;;;;5042336;28;20280;-72
2022/12/22 07:36:41;;;;;;;7.20;2.07;;;11.60;39.40;;;;;;5050342;28;20185;-73
2022/12/22 07:39:07;;;;;;;9.73;3.67;;;11.60;37.10;;;;;;5043172;28;20307;-70
2022/12/22 07:44:16;;;;;;;4.27;1.80;;;11.70;39.40;;;;;;5047610;28;20247;-70
2022/12/22 07:46:42;;;;;;;4.63;2.00;;;11.70;39.30;;;;;;5037088;28;20424;-72
2022/12/22 07:51:56;;;;;;;4.53;2.00;;;11.80;33.30;;;;;;5049843;28;20195;-73
2022/12/22 07:54:22;;;;;;;5.33;1.80;;;11.80;28.50;;;;;;5044143;28;20462;-71
2022/12/22 07:56:47;;;;;;;6.77;2.17;;;11.90;29.00;;;;;;5049565;28;20883;-71
2022/12/22 07:59:14;;;;;;;8.50;1.87;;;11.90;20.90;;;;;;5045058;28;20177;-71
2022/12/22 08:01:40;;;;;;;6.23;2.63;;;12.00;22.50;;;;;;5048420;28;20193;-70
2022/12/22 08:04:07;;;;;;;4.20;1.60;;;12.00;20.90;;;;;;5044438;28;20431;-69
2022/12/22 08:06:33;;;;;;;7.70;2.00;;;12.00;18.00;;;;;;5043705;28;20419;-71
2022/12/22 08:08:59;;;;;;;6.07;1.87;;;12.00;12.30;;;;;;5050509;28;20779;-70
2022/12/22 08:11:25;;;;;;;7.07;2.20;;;12.00;13.90;;;;;;5048809;28;20173;-69
2022/12/22 08:13:51;;;;;;;8.53;2.00;;;12.10;17.60;;;;;;5049449;28;20562;-71
2022/12/22 08:16:18;;;;;;;7.87;2.00;;;12.10;12.90;;;;;;5048963;28;20695;-70
2022/12/22 08:18:43;;;;;;;7.13;2.10;;;12.20;11.90;;;;;;5038236;28;20217;-71
2022/12/22 08:21:09;;;;;;;8.83;2.63;;;12.20;11.10;;;;;;5049447;28;20455;-72
2022/12/22 08:23:35;;;;;;;13.33;2.50;;;12.20;7.20;;;;;;5042024;28;20626;-71
2022/12/22 08:26:15;;;;;;;10.53;2.40;;;12.30;7.40;;;;;;5049343;28;20180;-71
2022/12/22 08:28:47;;;;;;;10.90;2.70;;;12.30;7.00;;;;;;5037388;28;20443;-72
2022/12/22 08:31:12;;;;;;;9.43;2.63;;;12.40;7.10;;;;;;5045814;28;20593;-70
2022/12/22 08:33:38;;;;;;;15.13;2.50;;;12.40;7.20;;;;;;5044909;28;20435;-71
2022/12/22 08:36:04;;;;;;;6.73;2.30;;;12.40;3.80;;;;;;5048009;28;20201;-70
2022/12/22 08:38:30;;;;;;;7.43;2.27;;;12.50;2.30;;;;;;5045952;28;20211;-71
2022/12/22 15:04:16;;;;;;;9.67;3.20;;;11.10;83.80;;;;;;5066567;28;20539;-70
2022/12/22 15:06:44;;;;;;;12.90;2.83;;;11.00;88.50;;;;;;5059962;28;20518;-70
2022/12/22 15:09:13;;;;;;;13.00;3.07;;;11.10;89.30;;;;;;5053004;28;20427;-70
2022/12/22 15:11:45;;;;;;;28.80;4.50;;;11.10;91.50;;;;;;5052845;28;20447;-70
2022/12/22 15:14:14;;;;;;;13.53;3.33;;;11.10;94.20;;;;;;5046814;28;20404;-70
2022/12/22 15:16:40;;;;;;;15.00;3.53;;;11.10;97.30;;;;;;5057073;28;20417;-70
2022/12/22 15:19:06;;;;;;;13.73;3.57;;;11.10;97.50;;;;;;5065579;28;20415;-71
2022/12/22 15:21:33;;;;;;;13.73;3.80;;;11.10;99.40;;;;;;5065862;28;20842;-71
2022/12/22 15:23:59;;;;;;;16.03;3.50;;;11.20;99.50;;;;;;5082274;28;20226;-71
2022/12/22 15:26:25;;;;;;;15.93;3.70;;;11.10;98.80;;;;;;5056981;28;20850;-71
2022/12/22 15:28:50;;;;;;;21.00;4.00;;;11.10;99.40;;;;;;5068300;28;20439;-71
2022/12/22 15:31:16;;;;;;;18.63;3.83;;;11.10;98.30;;;;;;5072875;28;20267;-71
2022/12/22 15:33:43;;;;;;;21.33;4.13;;;11.10;99.50;;;;;;5045992;28;20772;-71
2022/12/22 15:36:11;;;;;;;21.50;3.53;;;11.10;99.50;;;;;;5048775;28;20177;-71
2022/12/22 15:38:38;;;;;;;21.57;5.20;;;11.10;99.50;;;;;;5069915;28;20422;-72
2022/12/22 15:41:04;;;;;;;18.20;3.87;;;11.10;99.50;;;;;;5065290;28;20445;-72
2022/12/22 15:43:29;;;;;;;15.70;4.37;;;11.10;99.50;;;;;;5060910;28;21196;-71
2022/12/22 15:45:56;;;;;;;16.67;3.73;;;11.00;99.40;;;;;;5057554;28;20423;-71
2022/12/22 15:48:27;;;;;;;18.03;3.90;;;11.10;99.50;;;;;;5065111;28;20197;-71
2022/12/22 15:50:53;;;;;;;22.50;4.13;;;11.10;98.30;;;;;;5056203;28;20460;-71
2022/12/22 15:53:19;;;;;;;28.83;5.00;;;11.10;99.50;;;;;;5060117;28;20418;-73
2022/12/22 15:55:49;;;;;;;25.10;5.00;;;11.10;99.50;;;;;;5058719;28;20443;-72
2022/12/22 15:58:18;;;;;;;25.27;4.73;;;11.10;99.50;;;;;;5044669;28;20455;-71
2022/12/22 16:00:44;;;;;;;27.30;9.87;;;11.10;94.70;;;;;;5076531;28;20453;-71
2022/12/22 16:03:11;;;;;;;18.80;5.40;;;11.10;94.90;;;;;;5064461;28;20466;-72
2022/12/22 16:05:38;;;;;;;24.57;5.50;;;11.10;95.80;;;;;;5064537;28;20651;-71
2022/12/22 16:08:11;;;;;;;38.43;4.80;;;11.00;95.60;;;;;;5062995;28;20411;-72
2022/12/22 16:10:37;;;;;;;31.97;5.30;;;11.10;95.90;;;;;;5062265;28;21045;-71
2022/12/22 16:13:03;;;;;;;31.80;4.40;;;11.10;95.20;;;;;;5063872;28;20503;-72
2022/12/22 16:15:31;;;;;;;29.00;4.30;;;11.10;94.80;;;;;;5050959;28;20212;-72
2022/12/22 16:17:58;;;;;;;26.70;6.40;;;11.10;93.90;;;;;;5034306;28;20965;-71
2022/12/22 16:20:25;;;;;;;24.87;4.97;;;11.00;93.20;;;;;;5033924;28;20464;-72
2022/12/22 16:22:51;;;;;;;24.50;4.90;;;11.00;94.10;;;;;;5047939;28;20502;-72
2022/12/22 16:25:33;;;;;;;18.23;4.60;;;11.00;92.80;;;;;;5050640;28;20408;-71
2022/12/22 16:27:59;;;;;;;21.80;4.40;;;11.00;91.90;;;;;;5055185;28;20425;-70
2022/12/22 16:30:28;;;;;;;34.07;6.80;;;11.00;86.20;;;;;;5048043;28;21277;-70
2022/12/22 16:32:54;;;;;;;32.00;4.80;;;11.00;89.90;;;;;;5036214;28;20507;-70
2022/12/22 16:35:24;;;;;;;27.47;5.37;;;11.00;86.40;;;;;;5047152;28;20507;-70
2022/12/22 16:37:53;;;;;;;33.03;5.77;;;11.00;85.10;;;;;;5050603;28;20169;-70
2022/12/22 16:40:19;;;;;;;26.90;6.07;;;11.10;85.10;;;;;;5050954;28;20468;-70
2022/12/22 16:42:50;;;;;;;27.57;5.50;;;11.10;86.60;;;;;;5048345;28;20456;-70
2022/12/22 16:45:25;;;;;;;23.83;4.80;;;11.10;83.50;;;;;;5030233;28;20185;-70
2022/12/22 16:47:52;;;;;;;29.13;6.30;;;11.10;72.70;;;;;;5031733;28;20518;-70
2022/12/22 16:50:22;;;;;;;26.97;6.57;;;11.10;75.80;;;;;;5031034;28;20899;-70
2022/12/22 16:52:49;;;;;;;25.20;5.43;;;11.10;73.10;;;;;;5047858;28;20464;-70
2022/12/22 16:55:16;;;;;;;31.10;6.50;;;11.10;73.10;;;;;;5044078;28;20829;-70
2022/12/22 16:57:42;;;;;;;31.70;5.93;;;11.10;68.40;;;;;;5030135;28;20736;-70
2022/12/22 17:00:13;;;;;;;20.87;4.30;;;11.10;69.70;;;;;;5055678;28;20458;-70
2022/12/22 17:02:39;;;;;;;23.53;4.70;;;11.00;65.00;;;;;;5067761;28;20546;-69
2022/12/22 17:05:16;;;;;;;23.70;4.77;;;11.00;70.80;;;;;;5070534;28;20924;-69
2022/12/22 17:07:41;;;;;;;21.17;4.67;;;11.00;66.70;;;;;;5065193;28;20170;-70
2022/12/22 17:10:14;;;;;;;16.30;4.67;;;10.90;65.40;;;;;;5044147;28;20446;-70
2022/12/22 17:12:40;;;;;;;33.37;5.83;;;10.90;68.40;;;;;;5036400;28;20185;-70
2022/12/22 17:15:06;;;;;;;24.07;5.50;;;10.90;72.90;;;;;;5039388;28;20446;-71
2022/12/22 17:17:31;;;;;;;33.13;7.13;;;10.90;71.20;;;;;;5049659;28;20491;-70
2022/12/22 17:19:57;;;;;;;21.73;5.40;;;10.90;62.10;;;;;;5052530;28;20455;-71
2022/12/22 17:22:26;;;;;;;23.00;4.87;;;10.90;65.00;;;;;;5047795;28;20200;-70
2022/12/22 17:24:54;;;;;;;25.30;5.50;;;11.20;66.30;;;;;;5046616;28;20232;-70
2022/12/22 17:27:25;;;;;;;22.63;4.93;;;10.90;65.40;;;;;;5048304;28;21010;-71
2022/12/22 17:29:51;;;;;;;21.70;4.50;;;10.90;62.90;;;;;;5039504;28;20923;-70
2022/12/22 17:32:19;;;;;;;24.23;5.10;;;10.90;68.50;;;;;;5049869;28;20905;-70
2022/12/22 17:34:44;;;;;;;30.00;6.47;;;10.90;63.50;;;;;;5061610;28;20434;-70
2022/12/22 17:37:22;;;;;;;24.80;5.37;;;10.80;62.20;;;;;;5070021;28;20480;-69
2022/12/22 17:39:51;;;;;;;20.83;5.87;;;10.80;62.80;;;;;;5050981;28;20204;-70
2022/12/22 17:42:18;;;;;;;32.87;5.67;;;10.80;60.50;;;;;;5044377;28;20470;-70
2022/12/22 17:44:44;;;;;;;17.30;4.50;;;10.80;62.00;;;;;;5042533;28;20831;-70
2022/12/22 17:47:15;;;;;;;28.47;5.90;;;10.80;58.90;;;;;;5046405;28;20469;-70
2022/12/22 17:49:42;;;;;;;26.87;5.10;;;10.80;58.40;;;;;;5039508;28;20468;-70
2022/12/22 17:52:21;;;;;;;20.40;4.27;;;10.80;60.00;;;;;;5057299;28;20451;-70
2022/12/22 17:54:49;;;;;;;25.13;4.80;;;10.90;55.90;;;;;;5050565;28;20431;-70
2022/12/22 17:57:18;;;;;;;20.40;4.00;;;10.90;58.40;;;;;;5048122;28;20454;-70
2022/12/22 17:59:44;;;;;;;19.77;3.90;;;10.90;56.20;;;;;;5045030;28;20757;-69
2022/12/22 18:02:21;;;;;;;20.20;4.00;;;10.90;57.70;;;;;;5043808;28;20521;-70
2022/12/22 18:04:48;;;;;;;21.33;4.60;;;10.90;56.80;;;;;;5043568;28;20176;-69
2022/12/22 18:07:17;;;;;;;22.43;4.40;;;10.90;55.00;;;;;;5034796;28;20439;-70
2022/12/22 18:09:45;;;;;;;19.17;3.97;;;10.90;55.60;;;;;;5055171;28;20531;-72
2022/12/22 18:12:15;;;;;;;17.43;4.30;;;10.90;53.90;;;;;;5044967;28;20506;-71
2022/12/22 18:14:41;;;;;;;19.23;4.50;;;10.90;54.50;;;;;;5042843;28;20516;-71
2022/12/22 18:17:20;;;;;;;20.63;4.00;;;11.00;48.30;;;;;;5033583;28;20432;-72
2022/12/22 18:19:46;;;;;;;11.23;3.47;;;11.00;48.40;;;;;;5046938;28;20805;-72
2022/12/22 18:22:20;;;;;;;30.50;4.53;;;11.00;46.80;;;;;;5045831;28;20455;-70
2022/12/22 18:24:48;;;;;;;13.03;3.30;;;11.00;51.70;;;;;;5037236;28;20177;-71
2022/12/22 18:27:14;;;;;;;15.53;4.10;;;11.00;50.70;;;;;;5048377;28;20462;-71
2022/12/22 18:29:39;;;;;;;15.27;4.53;;;11.00;50.70;;;;;;5049505;28;20447;-71
2022/12/22 18:32:07;;;;;;;13.50;4.17;;;11.00;44.60;;;;;;5059536;28;20419;-71
2022/12/22 18:34:33;;;;;;;15.47;4.30;;;11.10;47.40;;;;;;5051970;28;20644;-71
2022/12/22 18:37:01;;;;;;;18.63;4.10;;;11.00;41.10;;;;;;5041113;28;20440;-71
2022/12/22 18:39:26;;;;;;;16.30;3.97;;;11.00;44.30;;;;;;5043820;28;21033;-71
2022/12/22 18:41:53;;;;;;;24.07;6.10;;;11.00;45.20;;;;;;5044958;28;20510;-71
2022/12/22 18:44:19;;;;;;;12.00;5.50;;;11.10;51.10;;;;;;5039295;28;20652;-70
2022/12/22 18:46:45;;;;;;;19.87;6.40;;;11.00;51.00;;;;;;5033944;28;20443;-70
2022/12/22 18:49:11;;;;;;;22.93;6.57;;;11.10;50.00;;;;;;5045446;28;20196;-70
2022/12/22 18:51:36;;;;;;;17.30;5.07;;;11.10;53.80;;;;;;5045241;28;20428;-69
2022/12/22 18:54:02;;;;;;;22.23;4.60;;;11.10;47.50;;;;;;5047543;28;20427;-70
2022/12/22 18:56:28;;;;;;;21.70;5.20;;;11.10;45.10;;;;;;5048302;28;20173;-71
2022/12/22 18:58:53;;;;;;;22.93;5.10;;;11.00;38.90;;;;;;5032462;28;20202;-70
2022/12/22 19:01:24;;;;;;;19.40;5.30;;;11.10;39.00;;;;;;5046348;28;20292;-70
2022/12/22 19:03:53;;;;;;;29.97;5.57;;;12.30;42.60;;;;;;5038841;28;20569;-69
2022/12/22 19:06:19;;;;;;;21.87;6.00;;;11.10;38.80;;;;;;5047591;28;21056;-70
2022/12/22 19:08:48;;;;;;;13.57;4.90;;;11.10;38.90;;;;;;5035373;28;20452;-70
2022/12/22 19:11:16;;;;;;;22.00;5.47;;;11.10;38.90;;;;;;5045859;28;20519;-72
2022/12/22 19:13:47;;;;;;;23.43;4.83;;;11.10;38.90;;;;;;5031928;28;20446;-71
2022/12/22 19:16:15;;;;;;;14.57;4.47;;;11.10;38.90;;;;;;5052122;28;20801;-70
2022/12/22 19:18:41;;;;;;;24.33;5.13;;;11.20;39.00;;;;;;5048996;28;20941;-71
2022/12/22 19:21:12;;;;;;;17.53;5.30;;;11.20;36.80;;;;;;5046992;28;20427;-70
2022/12/22 19:23:37;;;;;;;17.60;5.33;;;11.20;39.10;;;;;;5036958;28;20646;-71
2022/12/22 19:26:03;;;;;;;17.97;3.97;;;11.30;39.10;;;;;;5046115;28;20412;-71
2022/12/22 19:28:37;;;;;;;18.30;4.10;;;11.20;38.90;;;;;;5039961;28;20181;-70
2022/12/22 19:31:05;;;;;;;19.23;4.33;;;11.20;36.80;;;;;;5040975;28;20812;-69
2022/12/22 19:33:40;;;;;;;20.40;5.30;;;11.20;39.00;;;;;;5043106;28;20925;-71
2022/12/22 19:36:06;;;;;;;21.50;4.60;;;11.30;39.10;;;;;;5035519;28;20778;-71
2022/12/22 19:38:34;;;;;;;17.07;4.70;;;11.20;39.20;;;;;;5035475;28;20938;-71
2022/12/22 19:41:02;;;;;;;18.03;4.50;;;11.20;44.30;;;;;;5038968;28;20433;-69
2022/12/22 19:43:28;;;;;;;19.13;4.30;;;11.20;52.00;;;;;;5043026;28;20721;-71
2022/12/22 19:45:54;;;;;;;18.20;5.33;;;11.10;59.50;;;;;;5047087;28;20420;-72
2022/12/22 19:48:24;;;;;;;27.07;5.27;;;11.00;70.90;;;;;;5044462;28;20461;-72
2022/12/22 19:50:52;;;;;;;17.37;6.20;;;10.90;79.60;;;;;;5046619;28;20287;-72
2022/12/22 19:53:18;;;;;;;25.20;5.77;;;10.90;88.00;;;;;;5053399;28;20440;-72
2022/12/22 19:55:49;;;;;;;19.67;5.93;;;10.80;90.80;;;;;;5047908;28;20445;-72
2022/12/22 19:58:20;;;;;;;20.00;4.23;;;10.80;92.80;;;;;;5045344;28;21097;-71
2022/12/22 20:00:46;;;;;;;19.90;4.00;;;10.80;94.80;;;;;;5051005;28;20520;-71
2022/12/22 20:03:16;;;;;;;23.30;4.30;;;10.80;94.80;;;;;;5048360;28;20498;-72
2022/12/22 20:05:42;;;;;;;16.00;4.10;;;10.80;96.30;;;;;;5045194;28;20178;-72
2022/12/22 20:08:07;;;;;;;21.70;4.43;;;10.80;97.40;;;;;;5042078;28;20929;-72
2022/12/22 20:10:34;;;;;;;17.37;4.70;;;10.80;97.50;;;;;;5042820;28;20197;-71
2022/12/22 20:13:04;;;;;;;14.07;4.27;;;10.80;98.90;;;;;;5030714;28;20505;-72
2022/12/22 20:15:39;;;;;;;17.40;3.70;;;10.80;99.40;;;;;;5039945;28;20416;-72
2022/12/22 20:18:19;;;;;;;24.23;4.47;;;10.80;99.40;;;;;;5049598;28;20431;-72
2022/12/22 20:20:48;;;;;;;9.40;4.10;;;10.80;98.20;;;;;;5049354;28;20455;-72
2022/12/22 20:23:19;;;;;;;20.80;4.50;;;10.80;99.40;;;;;;5042259;28;20482;-72
2022/12/22 20:25:59;;;;;;;14.33;4.30;;;10.80;99.30;;;;;;5049921;28;20439;-71
2022/12/22 20:28:27;;;;;;;20.63;4.20;;;10.80;99.40;;;;;;5046521;28;20527;-73
2022/12/22 20:30:54;;;;;;;19.87;4.53;;;10.80;99.40;;;;;;5041217;28;20454;-71
2022/12/22 20:33:21;;;;;;;9.20;3.70;;;10.80;99.40;;;;;;5049522;28;20408;-72
2022/12/22 20:35:48;;;;;;;18.93;5.10;;;10.80;99.90;;;;;;5050603;28;20400;-72
2022/12/22 20:38:16;;;;;;;15.27;4.13;;;10.90;99.90;;;;;;5047955;28;20466;-73
2022/12/22 20:40:42;;;;;;;14.27;4.10;;;10.90;99.90;;;;;;5044560;28;20443;-73
2022/12/22 20:43:12;;;;;;;14.20;4.23;;;10.90;99.90;;;;;;5061406;28;20443;-72
2022/12/22 20:45:38;;;;;;;22.87;4.50;;;10.90;99.90;;;;;;5068532;28;20402;-72
2022/12/22 20:48:03;;;;;;;16.93;3.80;;;10.90;99.90;;;;;;5052934;28;20789;-71
2022/12/22 20:50:33;;;;;;;12.47;4.67;;;10.90;99.90;;;;;;5033985;28;20233;-72
2022/12/22 20:52:58;;;;;;;11.83;4.30;;;10.90;99.90;;;;;;5047792;28;20181;-72
2022/12/22 20:55:26;;;;;;;12.40;3.80;;;10.90;99.90;;;;;;5048155;28;20592;-72
2022/12/22 20:57:52;;;;;;;13.10;3.33;;;10.90;99.90;;;;;;5037226;28;20552;-72
2022/12/22 21:00:22;;;;;;;15.07;3.57;;;10.90;99.90;;;;;;5042201;28;20455;-72
2022/12/22 21:02:48;;;;;;;15.03;3.00;;;10.90;99.90;;;;;;5036854;28;20351;-72
2022/12/22 21:05:14;;;;;;;13.43;3.73;;;10.90;99.90;;;;;;5045905;28;20826;-72
2022/12/22 21:07:44;;;;;;;16.87;4.17;;;10.90;99.90;;;;;;5045732;28;20397;-72
2022/12/22 21:10:23;;;;;;;16.83;4.37;;;10.90;99.90;;;;;;5034903;28;20457;-72
2022/12/22 21:12:49;;;;;;;13.37;3.60;;;10.90;99.90;;;;;;5049350;28;20419;-71
2022/12/22 21:15:26;;;;;;;13.07;3.63;;;10.90;99.90;;;;;;5047165;28;20659;-72
2022/12/22 21:17:52;;;;;;;9.00;3.20;;;10.90;99.90;;;;;;5040783;28;20415;-71
2022/12/22 21:20:20;;;;;;;19.13;3.33;;;10.90;99.90;;;;;;5037324;28;20455;-71
2022/12/22 21:22:47;;;;;;;10.53;3.60;;;10.80;99.90;;;;;;5036972;28;20290;-72
2022/12/22 21:25:13;;;;;;;11.90;4.20;;;10.80;99.90;;;;;;5050160;28;20411;-72
2022/12/22 21:27:41;;;;;;;13.17;6.00;;;10.80;99.30;;;;;;5043616;28;20454;-72
2022/12/22 21:30:19;;;;;;;30.20;10.07;;;10.80;99.40;;;;;;5044797;28;20855;-72
2022/12/22 21:32:44;;;;;;;15.10;3.60;;;10.80;99.30;;;;;;5040360;28;20526;-72
2022/12/22 21:35:20;;;;;;;15.93;4.67;;;10.80;99.40;;;;;;5038546;28;20995;-72
2022/12/22 21:37:48;;;;;;;18.83;6.43;;;10.80;99.90;;;;;;5052345;28;20210;-72
2022/12/22 21:40:25;;;;;;;23.73;5.53;;;10.80;99.10;;;;;;5043117;28;20878;-72
2022/12/22 21:42:52;;;;;;;29.37;6.50;;;10.80;99.90;;;;;;5040336;28;20499;-73
2022/12/22 21:45:24;;;;;;;7.50;3.27;;;10.70;99.90;;;;;;5044647;28;20442;-72
2022/12/22 21:47:49;;;;;;;8.07;3.27;;;10.80;99.30;;;;;;5040247;28;20467;-71
2022/12/22 21:50:24;;;;;;;19.50;5.60;;;10.70;99.90;;;;;;5041166;28;20868;-72
2022/12/22 21:52:50;;;;;;;7.93;3.63;;;10.70;99.90;;;;;;5047188;28;20187;-72
2022/12/22 21:55:23;;;;;;;19.33;3.80;;;10.70;99.90;;;;;;5052854;28;20471;-72
2022/12/22 21:57:49;;;;;;;19.93;3.23;;;10.70;99.90;;;;;;5043751;28;20496;-75
2022/12/22 22:00:17;;;;;;;15.10;3.00;;;10.70;99.90;;;;;;5042318;28;20463;-72
2022/12/22 22:02:42;;;;;;;16.13;3.90;;;10.70;99.90;;;;;;5046510;28;20196;-72
2022/12/22 22:05:38;;;;;;;14.73;3.10;;;10.70;99.90;;;;;;5044015;28;20428;-70
2022/12/22 22:08:06;;;;;;;9.63;3.27;;;10.70;99.90;;;;;;5029750;28;20185;-71
2022/12/22 22:10:35;;;;;;;16.43;3.73;;;10.70;99.90;;;;;;5057046;28;20430;-72
2022/12/22 22:13:01;;;;;;;7.37;3.23;;;10.70;99.90;;;;;;5038961;28;20515;-71
2022/12/22 22:15:27;;;;;;;11.27;3.00;;;10.70;99.90;;;;;;5046757;28;20420;-72
2022/12/22 22:17:53;;;;;;;9.10;3.50;;;10.70;99.90;;;;;;5040204;28;20550;-71
2022/12/22 22:20:22;;;;;;;17.37;3.30;;;10.70;99.90;;;;;;5048348;28;20424;-72
2022/12/22 22:22:49;;;;;;;8.10;2.80;;;10.70;99.90;;;;;;5041638;28;20988;-72
2022/12/22 22:25:16;;;;;;;9.17;2.73;;;10.70;99.90;;;;;;5033222;28;20408;-71
2022/12/22 22:27:43;;;;;;;9.00;2.97;;;10.70;99.90;;;;;;5042246;28;20482;-72
2022/12/22 22:30:15;;;;;;;8.03;2.70;;;10.70;99.90;;;;;;5043135;28;20435;-72
2022/12/22 22:32:42;;;;;;;8.67;2.50;;;10.70;99.90;;;;;;5042825;28;20431;-71
2022/12/22 22:35:09;;;;;;;10.80;3.10;;;10.70;99.90;;;;;;5043137;28;20442;-70
2022/12/22 22:37:34;;;;;;;11.17;2.63;;;10.60;99.90;;;;;;5037701;28;20411;-71
2022/12/22 22:40:00;;;;;;;9.73;3.10;;;10.70;99.90;;;;;;5032947;28;21139;-70
2022/12/22 22:42:26;;;;;;;10.33;2.87;;;10.60;99.90;;;;;;5041600;28;20203;-72
2022/12/22 22:44:52;;;;;;;10.10;2.90;;;10.60;99.90;;;;;;5035677;28;20413;-70
2022/12/22 22:47:17;;;;;;;8.00;2.30;;;10.60;99.90;;;;;;5041164;28;20181;-71